sensor_id;sensor_type;location;lat;lon;timestamp;temperature;humidity
5459;DHT22;2752;49.992;8.422;2023-02-18T00:02:21;13.10;27.00
5459;DHT22;2752;49.992;8.422;2023-02-18T00:04:47;13.10;26.00
5459;DHT22;2752;49.992;8.422;2023-02-18T00:07:14;13.00;25.70
5459;DHT22;2752;49.992;8.422;2023-02-18T00:09:41;13.10;26.20
5459;DHT22;2752;49.992;8.422;2023-02-18T00:12:09;13.10;24.10
5459;DHT22;2752;49.992;8.422;2023-02-18T00:14:36;13.10;22.90
5459;DHT22;2752;49.992;8.422;2023-02-18T00:17:05;13.10;22.80
5459;DHT22;2752;49.992;8.422;2023-02-18T00:19:31;13.10;23.50
5459;DHT22;2752;49.992;8.422;2023-02-18T00:21:58;13.10;26.50
5459;DHT22;2752;49.992;8.422;2023-02-18T00:24:25;13.00;31.30
5459;DHT22;2752;49.992;8.422;2023-02-18T00:26:51;13.10;35.50
5459;DHT22;2752;49.992;8.422;2023-02-18T00:29:19;13.00;35.60
5459;DHT22;2752;49.992;8.422;2023-02-18T00:31:46;13.00;36.00
5459;DHT22;2752;49.992;8.422;2023-02-18T00:34:14;13.00;33.20
5459;DHT22;2752;49.992;8.422;2023-02-18T00:36:41;12.80;34.40
5459;DHT22;2752;49.992;8.422;2023-02-18T00:39:09;12.80;34.90
5459;DHT22;2752;49.992;8.422;2023-02-18T00:41:36;12.90;31.10
5459;DHT22;2752;49.992;8.422;2023-02-18T00:44:04;12.90;27.50
5459;DHT22;2752;49.992;8.422;2023-02-18T00:46:31;12.90;22.40
5459;DHT22;2752;49.992;8.422;2023-02-18T00:48:57;12.90;19.20
5459;DHT22;2752;49.992;8.422;2023-02-18T00:51:25;12.90;18.30
5459;DHT22;2752;49.992;8.422;2023-02-18T00:53:52;12.90;17.10
5459;DHT22;2752;49.992;8.422;2023-02-18T00:56:19;12.80;17.80
5459;DHT22;2752;49.992;8.422;2023-02-18T00:58:46;12.90;17.10
5459;DHT22;2752;49.992;8.422;2023-02-18T01:01:13;12.90;14.20
5459;DHT22;2752;49.992;8.422;2023-02-18T01:03:41;12.90;13.60
5459;DHT22;2752;49.992;8.422;2023-02-18T01:06:09;12.90;13.10
5459;DHT22;2752;49.992;8.422;2023-02-18T01:08:38;12.90;10.90
5459;DHT22;2752;49.992;8.422;2023-02-18T01:11:05;12.90;10.00
5459;DHT22;2752;49.992;8.422;2023-02-18T01:13:33;12.90;10.20
5459;DHT22;2752;49.992;8.422;2023-02-18T01:16:00;13.00;7.80
5459;DHT22;2752;49.992;8.422;2023-02-18T01:18:26;13.00;5.50
5459;DHT22;2752;49.992;8.422;2023-02-18T01:20:53;13.00;5.30
5459;DHT22;2752;49.992;8.422;2023-02-18T01:23:21;13.00;5.40
5459;DHT22;2752;49.992;8.422;2023-02-18T01:25:50;13.00;4.50
5459;DHT22;2752;49.992;8.422;2023-02-18T01:28:17;13.00;5.70
5459;DHT22;2752;49.992;8.422;2023-02-18T01:30:45;12.90;6.60
5459;DHT22;2752;49.992;8.422;2023-02-18T01:33:12;12.90;7.50
5459;DHT22;2752;49.992;8.422;2023-02-18T01:35:39;12.90;8.10
5459;DHT22;2752;49.992;8.422;2023-02-18T01:38:06;12.90;8.20
5459;DHT22;2752;49.992;8.422;2023-02-18T01:40:32;12.80;7.80
5459;DHT22;2752;49.992;8.422;2023-02-18T01:43:01;12.90;7.40
5459;DHT22;2752;49.992;8.422;2023-02-18T01:45:46;12.80;8.30
5459;DHT22;2752;49.992;8.422;2023-02-18T01:48:17;12.80;9.70
5459;DHT22;2752;49.992;8.422;2023-02-18T01:50:48;12.80;12.60
5459;DHT22;2752;49.992;8.422;2023-02-18T01:53:19;12.70;13.00
5459;DHT22;2752;49.992;8.422;2023-02-18T01:55:48;12.70;12.80
5459;DHT22;2752;49.992;8.422;2023-02-18T01:58:16;12.70;13.80
5459;DHT22;2752;49.992;8.422;2023-02-18T02:00:45;12.70;13.90
5459;DHT22;2752;49.992;8.422;2023-02-18T02:03:11;12.70;12.90
5459;DHT22;2752;49.992;8.422;2023-02-18T02:05:38;12.70;11.00
5459;DHT22;2752;49.992;8.422;2023-02-18T02:08:05;12.70;9.90
5459;DHT22;2752;49.992;8.422;2023-02-18T02:10:44;12.70;9.50
5459;DHT22;2752;49.992;8.422;2023-02-18T02:13:19;12.70;9.80
5459;DHT22;2752;49.992;8.422;2023-02-18T02:15:51;12.60;9.60
5459;DHT22;2752;49.992;8.422;2023-02-18T02:18:38;12.60;7.90
5459;DHT22;2752;49.992;8.422;2023-02-18T02:21:57;12.60;7.70
5459;DHT22;2752;49.992;8.422;2023-02-18T02:24:56;12.60;8.40
5459;DHT22;2752;49.992;8.422;2023-02-18T02:27:28;12.60;8.40
5459;DHT22;2752;49.992;8.422;2023-02-18T02:33:47;12.60;10.80
5459;DHT22;2752;49.992;8.422;2023-02-18T02:36:20;12.60;9.90
5459;DHT22;2752;49.992;8.422;2023-02-18T02:38:54;12.60;10.30
5459;DHT22;2752;49.992;8.422;2023-02-18T02:41:33;12.50;12.00
5459;DHT22;2752;49.992;8.422;2023-02-18T02:44:10;12.60;11.40
5459;DHT22;2752;49.992;8.422;2023-02-18T02:46:42;12.60;10.60
5459;DHT22;2752;49.992;8.422;2023-02-18T02:49:19;12.60;11.10
5459;DHT22;2752;49.992;8.422;2023-02-18T02:51:56;12.50;11.90
5459;DHT22;2752;49.992;8.422;2023-02-18T02:54:26;12.50;12.90
5459;DHT22;2752;49.992;8.422;2023-02-18T02:57:08;12.50;11.70
5459;DHT22;2752;49.992;8.422;2023-02-18T02:59:37;12.50;11.00
5459;DHT22;2752;49.992;8.422;2023-02-18T03:02:21;12.50;11.90
5459;DHT22;2752;49.992;8.422;2023-02-18T03:05:07;12.50;11.30
5459;DHT22;2752;49.992;8.422;2023-02-18T03:07:54;12.50;10.10
5459;DHT22;2752;49.992;8.422;2023-02-18T03:10:38;12.50;9.30
5459;DHT22;2752;49.992;8.422;2023-02-18T03:13:11;12.50;8.40
5459;DHT22;2752;49.992;8.422;2023-02-18T03:15:48;12.50;8.30
5459;DHT22;2752;49.992;8.422;2023-02-18T03:18:19;12.50;8.10
5459;DHT22;2752;49.992;8.422;2023-02-18T03:20:52;12.50;8.10
5459;DHT22;2752;49.992;8.422;2023-02-18T03:23:26;12.50;8.50
5459;DHT22;2752;49.992;8.422;2023-02-18T03:25:54;12.50;8.10
5459;DHT22;2752;49.992;8.422;2023-02-18T03:28:23;12.40;8.70
5459;DHT22;2752;49.992;8.422;2023-02-18T03:30:55;12.40;9.20
5459;DHT22;2752;49.992;8.422;2023-02-18T03:33:27;12.40;10.60
5459;DHT22;2752;49.992;8.422;2023-02-18T03:35:56;12.50;9.20
5459;DHT22;2752;49.992;8.422;2023-02-18T03:38:28;12.40;10.50
5459;DHT22;2752;49.992;8.422;2023-02-18T03:40:56;12.40;10.70
5459;DHT22;2752;49.992;8.422;2023-02-18T03:43:23;12.40;11.30
5459;DHT22;2752;49.992;8.422;2023-02-18T03:45:51;12.40;11.90
5459;DHT22;2752;49.992;8.422;2023-02-18T03:48:17;12.50;10.70
5459;DHT22;2752;49.992;8.422;2023-02-18T03:50:44;12.50;8.90
5459;DHT22;2752;49.992;8.422;2023-02-18T03:53:11;12.50;9.10
5459;DHT22;2752;49.992;8.422;2023-02-18T03:55:39;12.50;8.90
5459;DHT22;2752;49.992;8.422;2023-02-18T03:58:07;12.50;8.90
5459;DHT22;2752;49.992;8.422;2023-02-18T04:00:34;12.50;8.00
5459;DHT22;2752;49.992;8.422;2023-02-18T04:03:00;12.50;8.30
5459;DHT22;2752;49.992;8.422;2023-02-18T04:05:27;12.50;6.70
5459;DHT22;2752;49.992;8.422;2023-02-18T04:07:54;12.50;6.70
5459;DHT22;2752;49.992;8.422;2023-02-18T04:10:20;12.50;6.70
5459;DHT22;2752;49.992;8.422;2023-02-18T04:12:49;12.50;6.60
5459;DHT22;2752;49.992;8.422;2023-02-18T04:15:16;12.50;7.00
5459;DHT22;2752;49.992;8.422;2023-02-18T04:17:42;12.50;8.60
5459;DHT22;2752;49.992;8.422;2023-02-18T04:20:10;12.40;11.40
5459;DHT22;2752;49.992;8.422;2023-02-18T04:22:36;12.30;13.80
5459;DHT22;2752;49.992;8.422;2023-02-18T04:25:03;12.40;16.90
5459;DHT22;2752;49.992;8.422;2023-02-18T04:27:30;12.30;16.90
5459;DHT22;2752;49.992;8.422;2023-02-18T04:29:58;12.30;17.90
5459;DHT22;2752;49.992;8.422;2023-02-18T04:32:25;12.30;19.70
5459;DHT22;2752;49.992;8.422;2023-02-18T04:34:52;12.40;18.80
5459;DHT22;2752;49.992;8.422;2023-02-18T04:37:18;12.30;19.60
5459;DHT22;2752;49.992;8.422;2023-02-18T04:39:45;12.40;19.50
5459;DHT22;2752;49.992;8.422;2023-02-18T04:42:11;12.30;19.60
5459;DHT22;2752;49.992;8.422;2023-02-18T04:44:38;12.20;22.70
5459;DHT22;2752;49.992;8.422;2023-02-18T04:47:06;12.20;25.40
5459;DHT22;2752;49.992;8.422;2023-02-18T04:49:33;12.20;26.20
5459;DHT22;2752;49.992;8.422;2023-02-18T04:52:00;12.30;25.60
5459;DHT22;2752;49.992;8.422;2023-02-18T04:54:26;12.20;26.70
5459;DHT22;2752;49.992;8.422;2023-02-18T04:56:53;12.20;28.70
5459;DHT22;2752;49.992;8.422;2023-02-18T04:59:20;12.30;30.80
5459;DHT22;2752;49.992;8.422;2023-02-18T05:01:46;12.20;28.00
5459;DHT22;2752;49.992;8.422;2023-02-18T05:04:15;12.30;27.60
5459;DHT22;2752;49.992;8.422;2023-02-18T05:06:42;12.30;30.50
5459;DHT22;2752;49.992;8.422;2023-02-18T05:09:09;12.20;30.80
5459;DHT22;2752;49.992;8.422;2023-02-18T05:11:36;12.10;33.30
5459;DHT22;2752;49.992;8.422;2023-02-18T05:14:04;12.10;35.50
5459;DHT22;2752;49.992;8.422;2023-02-18T05:16:31;12.00;38.30
5459;DHT22;2752;49.992;8.422;2023-02-18T05:18:57;11.90;42.80
5459;DHT22;2752;49.992;8.422;2023-02-18T05:21:25;11.90;46.50
5459;DHT22;2752;49.992;8.422;2023-02-18T05:23:52;11.80;46.90
5459;DHT22;2752;49.992;8.422;2023-02-18T05:26:19;12.00;43.80
5459;DHT22;2752;49.992;8.422;2023-02-18T05:28:46;11.90;43.00
5459;DHT22;2752;49.992;8.422;2023-02-18T05:31:13;11.90;42.90
5459;DHT22;2752;49.992;8.422;2023-02-18T05:33:40;11.90;41.80
5459;DHT22;2752;49.992;8.422;2023-02-18T05:36:07;11.90;41.00
5459;DHT22;2752;49.992;8.422;2023-02-18T05:38:36;11.80;42.10
5459;DHT22;2752;49.992;8.422;2023-02-18T05:41:03;11.90;42.40
5459;DHT22;2752;49.992;8.422;2023-02-18T05:43:30;11.90;36.00
5459;DHT22;2752;49.992;8.422;2023-02-18T05:46:18;11.90;35.60
5459;DHT22;2752;49.992;8.422;2023-02-18T05:48:45;12.00;30.70
5459;DHT22;2752;49.992;8.422;2023-02-18T05:51:12;12.10;24.60
5459;DHT22;2752;49.992;8.422;2023-02-18T05:53:40;12.10;20.70
5459;DHT22;2752;49.992;8.422;2023-02-18T05:56:08;12.10;18.40
5459;DHT22;2752;49.992;8.422;2023-02-18T05:58:35;12.00;16.80
5459;DHT22;2752;49.992;8.422;2023-02-18T06:01:02;12.00;15.20
5459;DHT22;2752;49.992;8.422;2023-02-18T06:03:29;12.10;10.70
5459;DHT22;2752;49.992;8.422;2023-02-18T06:05:56;12.00;7.00
5459;DHT22;2752;49.992;8.422;2023-02-18T06:08:23;12.10;4.80
5459;DHT22;2752;49.992;8.422;2023-02-18T06:10:51;12.00;3.10
5459;DHT22;2752;49.992;8.422;2023-02-18T06:13:19;12.00;2.10
5459;DHT22;2752;49.992;8.422;2023-02-18T06:15:49;11.50;1.00
5459;DHT22;2752;49.992;8.422;2023-02-18T06:18:18;12.10;1.00
5459;DHT22;2752;49.992;8.422;2023-02-18T06:20:46;12.10;1.00
5459;DHT22;2752;49.992;8.422;2023-02-18T06:23:14;12.00;1.00
5459;DHT22;2752;49.992;8.422;2023-02-18T06:25:41;12.10;1.00
5459;DHT22;2752;49.992;8.422;2023-02-18T06:28:12;12.10;1.00
5459;DHT22;2752;49.992;8.422;2023-02-18T06:30:39;12.10;1.00
5459;DHT22;2752;49.992;8.422;2023-02-18T06:33:06;12.10;1.00
5459;DHT22;2752;49.992;8.422;2023-02-18T06:35:33;12.10;1.00
5459;DHT22;2752;49.992;8.422;2023-02-18T06:38:00;12.00;1.00
5459;DHT22;2752;49.992;8.422;2023-02-18T06:40:27;12.10;1.00
5459;DHT22;2752;49.992;8.422;2023-02-18T06:42:54;12.00;1.00
5459;DHT22;2752;49.992;8.422;2023-02-18T06:45:22;12.10;1.00
5459;DHT22;2752;49.992;8.422;2023-02-18T06:47:48;12.10;1.00
5459;DHT22;2752;49.992;8.422;2023-02-18T06:50:15;12.10;1.00
5459;DHT22;2752;49.992;8.422;2023-02-18T06:52:43;12.10;1.00
5459;DHT22;2752;49.992;8.422;2023-02-18T06:55:10;12.00;1.00
5459;DHT22;2752;49.992;8.422;2023-02-18T06:57:37;12.10;1.00
5459;DHT22;2752;49.992;8.422;2023-02-18T07:00:04;12.10;1.00
5459;DHT22;2752;49.992;8.422;2023-02-18T07:02:33;12.10;1.00
5459;DHT22;2752;49.992;8.422;2023-02-18T07:05:00;12.00;1.00
5459;DHT22;2752;49.992;8.422;2023-02-18T07:07:26;12.10;1.00
5459;DHT22;2752;49.992;8.422;2023-02-18T07:09:53;12.00;1.00
5459;DHT22;2752;49.992;8.422;2023-02-18T07:12:20;12.00;1.00
5459;DHT22;2752;49.992;8.422;2023-02-18T07:14:46;12.00;1.00
5459;DHT22;2752;49.992;8.422;2023-02-18T07:17:13;12.00;1.00
5459;DHT22;2752;49.992;8.422;2023-02-18T07:19:41;12.00;1.00
5459;DHT22;2752;49.992;8.422;2023-02-18T07:22:08;12.10;1.00
5459;DHT22;2752;49.992;8.422;2023-02-18T07:24:34;12.10;1.00
5459;DHT22;2752;49.992;8.422;2023-02-18T07:27:01;12.10;1.00
5459;DHT22;2752;49.992;8.422;2023-02-18T07:29:28;12.10;1.00
5459;DHT22;2752;49.992;8.422;2023-02-18T07:31:54;12.00;1.00
5459;DHT22;2752;49.992;8.422;2023-02-18T07:34:21;12.10;1.00
5459;DHT22;2752;49.992;8.422;2023-02-18T07:36:49;12.10;1.00
5459;DHT22;2752;49.992;8.422;2023-02-18T07:39:16;12.10;1.00
5459;DHT22;2752;49.992;8.422;2023-02-18T07:41:45;12.00;1.00
5459;DHT22;2752;49.992;8.422;2023-02-18T07:44:11;12.10;1.00
5459;DHT22;2752;49.992;8.422;2023-02-18T07:46:38;12.10;1.00
5459;DHT22;2752;49.992;8.422;2023-02-18T07:49:05;12.10;1.00
5459;DHT22;2752;49.992;8.422;2023-02-18T07:51:32;12.10;1.00
5459;DHT22;2752;49.992;8.422;2023-02-18T07:54:00;12.10;1.00
5459;DHT22;2752;49.992;8.422;2023-02-18T07:56:27;12.20;1.00
5459;DHT22;2752;49.992;8.422;2023-02-18T07:58:53;12.20;1.00
5459;DHT22;2752;49.992;8.422;2023-02-18T08:01:20;12.20;1.00
5459;DHT22;2752;49.992;8.422;2023-02-18T08:03:47;12.20;1.00
5459;DHT22;2752;49.992;8.422;2023-02-18T08:06:20;12.20;1.00
5459;DHT22;2752;49.992;8.422;2023-02-18T08:08:47;12.30;1.00
5459;DHT22;2752;49.992;8.422;2023-02-18T08:11:15;12.30;1.00
5459;DHT22;2752;49.992;8.422;2023-02-18T08:13:42;12.30;1.00
5459;DHT22;2752;49.992;8.422;2023-02-18T08:16:09;12.30;1.00
5459;DHT22;2752;49.992;8.422;2023-02-18T08:18:35;12.20;1.00
5459;DHT22;2752;49.992;8.422;2023-02-18T08:21:02;12.20;1.00
5459;DHT22;2752;49.992;8.422;2023-02-18T08:23:29;12.20;1.00
5459;DHT22;2752;49.992;8.422;2023-02-18T08:25:55;12.20;1.00
5459;DHT22;2752;49.992;8.422;2023-02-18T08:28:24;12.30;1.00
5459;DHT22;2752;49.992;8.422;2023-02-18T08:30:52;12.30;1.00
5459;DHT22;2752;49.992;8.422;2023-02-18T08:33:20;12.30;1.00
5459;DHT22;2752;49.992;8.422;2023-02-18T08:35:49;12.30;1.00
5459;DHT22;2752;49.992;8.422;2023-02-18T08:38:16;12.30;1.00
5459;DHT22;2752;49.992;8.422;2023-02-18T08:40:42;12.30;1.00
5459;DHT22;2752;49.992;8.422;2023-02-18T08:43:09;12.30;1.00
5459;DHT22;2752;49.992;8.422;2023-02-18T08:45:38;12.30;1.00
5459;DHT22;2752;49.992;8.422;2023-02-18T08:48:05;12.30;1.00
5459;DHT22;2752;49.992;8.422;2023-02-18T08:50:32;12.30;1.00
5459;DHT22;2752;49.992;8.422;2023-02-18T08:52:59;12.40;1.00
5459;DHT22;2752;49.992;8.422;2023-02-18T08:55:27;12.40;1.00
5459;DHT22;2752;49.992;8.422;2023-02-18T08:57:54;12.40;1.00
5459;DHT22;2752;49.992;8.422;2023-02-18T09:00:21;12.50;1.00
5459;DHT22;2752;49.992;8.422;2023-02-18T09:02:49;12.50;1.00
5459;DHT22;2752;49.992;8.422;2023-02-18T09:05:16;12.50;1.00
5459;DHT22;2752;49.992;8.422;2023-02-18T09:07:42;12.50;1.00
5459;DHT22;2752;49.992;8.422;2023-02-18T09:10:09;12.50;1.00
5459;DHT22;2752;49.992;8.422;2023-02-18T09:12:36;12.50;1.00
5459;DHT22;2752;49.992;8.422;2023-02-18T09:15:04;12.60;1.00
5459;DHT22;2752;49.992;8.422;2023-02-18T09:17:30;12.60;1.00
5459;DHT22;2752;49.992;8.422;2023-02-18T09:19:59;12.60;1.00
5459;DHT22;2752;49.992;8.422;2023-02-18T09:22:25;12.60;1.00
5459;DHT22;2752;49.992;8.422;2023-02-18T09:24:52;12.60;1.00
5459;DHT22;2752;49.992;8.422;2023-02-18T09:27:19;12.60;1.00
5459;DHT22;2752;49.992;8.422;2023-02-18T09:29:47;12.70;1.00
5459;DHT22;2752;49.992;8.422;2023-02-18T09:32:15;12.70;1.00
5459;DHT22;2752;49.992;8.422;2023-02-18T09:34:43;12.60;1.00
5459;DHT22;2752;49.992;8.422;2023-02-18T09:37:11;12.60;1.00
5459;DHT22;2752;49.992;8.422;2023-02-18T09:39:39;12.50;1.00
5459;DHT22;2752;49.992;8.422;2023-02-18T09:42:10;12.50;1.00
5459;DHT22;2752;49.992;8.422;2023-02-18T09:44:42;12.50;1.00
5459;DHT22;2752;49.992;8.422;2023-02-18T09:47:12;12.50;1.00
5459;DHT22;2752;49.992;8.422;2023-02-18T09:49:44;12.50;1.00
5459;DHT22;2752;49.992;8.422;2023-02-18T09:52:19;12.50;1.00
5459;DHT22;2752;49.992;8.422;2023-02-18T09:54:48;12.50;1.00
5459;DHT22;2752;49.992;8.422;2023-02-18T09:57:20;12.50;1.00
5459;DHT22;2752;49.992;8.422;2023-02-18T09:59:53;12.60;1.00
5459;DHT22;2752;49.992;8.422;2023-02-18T10:02:22;12.50;1.00
5459;DHT22;2752;49.992;8.422;2023-02-18T10:04:50;12.50;1.00
5459;DHT22;2752;49.992;8.422;2023-02-18T10:07:22;12.50;1.00
5459;DHT22;2752;49.992;8.422;2023-02-18T10:09:51;12.50;1.00
5459;DHT22;2752;49.992;8.422;2023-02-18T10:12:20;12.50;1.00
5459;DHT22;2752;49.992;8.422;2023-02-18T10:14:49;12.50;1.00
5459;DHT22;2752;49.992;8.422;2023-02-18T10:17:16;12.50;1.00
5459;DHT22;2752;49.992;8.422;2023-02-18T10:19:45;12.50;1.00
5459;DHT22;2752;49.992;8.422;2023-02-18T10:22:14;12.40;1.00
5459;DHT22;2752;49.992;8.422;2023-02-18T10:24:45;12.40;1.00
5459;DHT22;2752;49.992;8.422;2023-02-18T10:27:18;12.40;1.00
5459;DHT22;2752;49.992;8.422;2023-02-18T10:29:47;12.50;1.00
5459;DHT22;2752;49.992;8.422;2023-02-18T10:32:19;12.50;1.00
5459;DHT22;2752;49.992;8.422;2023-02-18T10:34:50;12.50;1.00
5459;DHT22;2752;49.992;8.422;2023-02-18T10:37:40;12.50;1.00
5459;DHT22;2752;49.992;8.422;2023-02-18T10:40:17;12.50;1.00
5459;DHT22;2752;49.992;8.422;2023-02-18T10:42:58;12.50;1.00
5459;DHT22;2752;49.992;8.422;2023-02-18T10:45:37;12.50;1.00
5459;DHT22;2752;49.992;8.422;2023-02-18T10:48:22;12.50;1.00
5459;DHT22;2752;49.992;8.422;2023-02-18T10:50:51;12.50;1.00
5459;DHT22;2752;49.992;8.422;2023-02-18T10:53:27;12.50;1.00
5459;DHT22;2752;49.992;8.422;2023-02-18T10:55:57;12.50;1.00
5459;DHT22;2752;49.992;8.422;2023-02-18T10:58:31;12.50;1.00
5459;DHT22;2752;49.992;8.422;2023-02-18T11:00:59;12.50;1.00
5459;DHT22;2752;49.992;8.422;2023-02-18T11:03:40;12.50;1.00
5459;DHT22;2752;49.992;8.422;2023-02-18T11:06:15;12.50;1.00
5459;DHT22;2752;49.992;8.422;2023-02-18T11:08:45;12.50;1.00
5459;DHT22;2752;49.992;8.422;2023-02-18T11:11:16;12.50;1.00
5459;DHT22;2752;49.992;8.422;2023-02-18T11:13:43;12.50;1.00
5459;DHT22;2752;49.992;8.422;2023-02-18T11:16:10;12.50;1.00
5459;DHT22;2752;49.992;8.422;2023-02-18T11:18:39;12.50;1.00
5459;DHT22;2752;49.992;8.422;2023-02-18T11:21:19;12.50;1.00
5459;DHT22;2752;49.992;8.422;2023-02-18T11:23:48;12.50;1.00
5459;DHT22;2752;49.992;8.422;2023-02-18T11:26:20;12.50;1.00
5459;DHT22;2752;49.992;8.422;2023-02-18T11:28:51;12.60;1.00
5459;DHT22;2752;49.992;8.422;2023-02-18T11:31:25;12.70;1.00
5459;DHT22;2752;49.992;8.422;2023-02-18T11:33:54;12.70;1.00
5459;DHT22;2752;49.992;8.422;2023-02-18T11:36:24;12.70;1.00
5459;DHT22;2752;49.992;8.422;2023-02-18T11:38:54;12.80;1.00
5459;DHT22;2752;49.992;8.422;2023-02-18T11:41:32;12.80;1.00
5459;DHT22;2752;49.992;8.422;2023-02-18T11:44:00;12.80;1.00
5459;DHT22;2752;49.992;8.422;2023-02-18T11:46:28;12.90;1.00
5459;DHT22;2752;49.992;8.422;2023-02-18T11:48:55;12.90;1.00
5459;DHT22;2752;49.992;8.422;2023-02-18T11:51:24;12.80;1.00
5459;DHT22;2752;49.992;8.422;2023-02-18T11:53:59;12.70;1.00
5459;DHT22;2752;49.992;8.422;2023-02-18T11:56:30;12.70;1.00
5459;DHT22;2752;49.992;8.422;2023-02-18T11:58:58;12.70;1.00
5459;DHT22;2752;49.992;8.422;2023-02-18T12:01:38;12.70;1.00
5459;DHT22;2752;49.992;8.422;2023-02-18T12:04:11;12.70;1.00
5459;DHT22;2752;49.992;8.422;2023-02-18T12:06:45;12.80;1.00
5459;DHT22;2752;49.992;8.422;2023-02-18T12:09:21;12.80;1.00
5459;DHT22;2752;49.992;8.422;2023-02-18T12:11:52;12.70;1.00
5459;DHT22;2752;49.992;8.422;2023-02-18T12:14:20;12.70;1.00
5459;DHT22;2752;49.992;8.422;2023-02-18T12:17:03;12.70;1.00
5459;DHT22;2752;49.992;8.422;2023-02-18T12:19:49;12.70;1.00
5459;DHT22;2752;49.992;8.422;2023-02-18T12:22:24;12.70;1.00
5459;DHT22;2752;49.992;8.422;2023-02-18T12:25:08;12.80;1.00
5459;DHT22;2752;49.992;8.422;2023-02-18T12:27:41;12.80;1.00
5459;DHT22;2752;49.992;8.422;2023-02-18T12:30:31;12.80;1.00
5459;DHT22;2752;49.992;8.422;2023-02-18T12:33:09;12.90;1.00
5459;DHT22;2752;49.992;8.422;2023-02-18T12:35:55;13.00;1.00
5459;DHT22;2752;49.992;8.422;2023-02-18T12:38:43;13.00;1.00
5459;DHT22;2752;49.992;8.422;2023-02-18T12:41:28;13.00;1.00
5459;DHT22;2752;49.992;8.422;2023-02-18T12:44:05;13.00;1.00
5459;DHT22;2752;49.992;8.422;2023-02-18T12:46:52;13.00;1.00
5459;DHT22;2752;49.992;8.422;2023-02-18T12:52:25;13.00;1.00
5459;DHT22;2752;49.992;8.422;2023-02-18T12:55:21;13.10;1.00
5459;DHT22;2752;49.992;8.422;2023-02-18T12:57:57;13.10;1.00
5459;DHT22;2752;49.992;8.422;2023-02-18T13:00:39;13.00;1.00
5459;DHT22;2752;49.992;8.422;2023-02-18T13:06:24;13.00;1.00
5459;DHT22;2752;49.992;8.422;2023-02-18T13:08:58;13.10;1.00
5459;DHT22;2752;49.992;8.422;2023-02-18T13:11:37;13.20;1.00
5459;DHT22;2752;49.992;8.422;2023-02-18T13:14:10;13.60;1.00
5459;DHT22;2752;49.992;8.422;2023-02-18T13:16:41;13.00;1.00
5459;DHT22;2752;49.992;8.422;2023-02-18T13:19:17;12.90;1.00
5459;DHT22;2752;49.992;8.422;2023-02-18T13:21:45;12.90;1.00
5459;DHT22;2752;49.992;8.422;2023-02-18T13:24:18;12.90;1.00
5459;DHT22;2752;49.992;8.422;2023-02-18T13:26:48;12.90;1.00
5459;DHT22;2752;49.992;8.422;2023-02-18T13:29:23;13.00;1.00
5459;DHT22;2752;49.992;8.422;2023-02-18T13:32:00;12.90;1.00
5459;DHT22;2752;49.992;8.422;2023-02-18T13:34:36;12.80;1.00
5459;DHT22;2752;49.992;8.422;2023-02-18T13:37:12;12.70;1.00
5459;DHT22;2752;49.992;8.422;2023-02-18T13:39:47;12.70;1.00
5459;DHT22;2752;49.992;8.422;2023-02-18T13:42:39;12.50;1.00
5459;DHT22;2752;49.992;8.422;2023-02-18T13:45:22;12.50;1.00
5459;DHT22;2752;49.992;8.422;2023-02-18T13:47:51;12.40;1.00
5459;DHT22;2752;49.992;8.422;2023-02-18T13:50:29;12.40;1.00
5459;DHT22;2752;49.992;8.422;2023-02-18T13:53:22;12.30;1.00
5459;DHT22;2752;49.992;8.422;2023-02-18T13:56:01;12.10;1.00
5459;DHT22;2752;49.992;8.422;2023-02-18T13:58:34;12.00;1.00
5459;DHT22;2752;49.992;8.422;2023-02-18T14:01:05;12.00;1.00
5459;DHT22;2752;49.992;8.422;2023-02-18T14:03:58;12.00;1.00
5459;DHT22;2752;49.992;8.422;2023-02-18T14:06:28;12.10;1.00
5459;DHT22;2752;49.992;8.422;2023-02-18T14:09:14;12.20;1.00
5459;DHT22;2752;49.992;8.422;2023-02-18T14:11:54;12.20;1.00
5459;DHT22;2752;49.992;8.422;2023-02-18T14:14:40;12.30;1.00
5459;DHT22;2752;49.992;8.422;2023-02-18T14:20:41;12.40;1.00
5459;DHT22;2752;49.992;8.422;2023-02-18T14:23:41;12.40;1.00
5459;DHT22;2752;49.992;8.422;2023-02-18T14:26:15;12.30;1.00
5459;DHT22;2752;49.992;8.422;2023-02-18T14:28:48;12.30;1.00
5459;DHT22;2752;49.992;8.422;2023-02-18T14:31:34;12.30;1.00
5459;DHT22;2752;49.992;8.422;2023-02-18T14:34:29;12.30;1.00
5459;DHT22;2752;49.992;8.422;2023-02-18T14:37:08;12.40;1.00
5459;DHT22;2752;49.992;8.422;2023-02-18T14:39:46;12.30;1.00
5459;DHT22;2752;49.992;8.422;2023-02-18T14:42:25;12.40;1.00
5459;DHT22;2752;49.992;8.422;2023-02-18T14:45:08;12.40;1.00
5459;DHT22;2752;49.992;8.422;2023-02-18T14:47:53;12.40;1.00
5459;DHT22;2752;49.992;8.422;2023-02-18T14:50:21;12.50;1.00
5459;DHT22;2752;49.992;8.422;2023-02-18T14:52:50;12.50;1.00
5459;DHT22;2752;49.992;8.422;2023-02-18T14:55:22;12.40;1.00
5459;DHT22;2752;49.992;8.422;2023-02-18T14:57:51;12.40;1.00
5459;DHT22;2752;49.992;8.422;2023-02-18T15:00:22;12.40;1.00
5459;DHT22;2752;49.992;8.422;2023-02-18T15:02:50;12.40;1.00
5459;DHT22;2752;49.992;8.422;2023-02-18T15:05:19;12.40;1.00
5459;DHT22;2752;49.992;8.422;2023-02-18T15:07:59;12.40;1.00
5459;DHT22;2752;49.992;8.422;2023-02-18T15:10:40;12.40;1.00
5459;DHT22;2752;49.992;8.422;2023-02-18T15:13:13;12.50;1.00
5459;DHT22;2752;49.992;8.422;2023-02-18T15:15:42;12.50;1.00
5459;DHT22;2752;49.992;8.422;2023-02-18T15:18:18;12.60;1.00
5459;DHT22;2752;49.992;8.422;2023-02-18T15:20:45;12.60;1.00
5459;DHT22;2752;49.992;8.422;2023-02-18T15:23:15;12.60;1.00
5459;DHT22;2752;49.992;8.422;2023-02-18T15:25:48;12.60;1.00
5459;DHT22;2752;49.992;8.422;2023-02-18T15:28:27;12.50;1.00
5459;DHT22;2752;49.992;8.422;2023-02-18T15:30:55;12.60;1.00
5459;DHT22;2752;49.992;8.422;2023-02-18T15:33:22;12.60;1.00
5459;DHT22;2752;49.992;8.422;2023-02-18T15:35:49;12.50;1.00
5459;DHT22;2752;49.992;8.422;2023-02-18T15:38:17;12.50;1.00
5459;DHT22;2752;49.992;8.422;2023-02-18T15:40:49;12.50;1.00
5459;DHT22;2752;49.992;8.422;2023-02-18T15:43:20;12.50;1.00
5459;DHT22;2752;49.992;8.422;2023-02-18T15:45:49;12.50;1.00
5459;DHT22;2752;49.992;8.422;2023-02-18T15:48:23;12.50;1.00
5459;DHT22;2752;49.992;8.422;2023-02-18T15:50:53;12.40;1.00
5459;DHT22;2752;49.992;8.422;2023-02-18T15:53:21;12.40;1.00
5459;DHT22;2752;49.992;8.422;2023-02-18T15:55:52;12.40;1.00
5459;DHT22;2752;49.992;8.422;2023-02-18T15:58:22;12.50;1.00
5459;DHT22;2752;49.992;8.422;2023-02-18T16:00:52;12.20;1.00
5459;DHT22;2752;49.992;8.422;2023-02-18T16:03:20;12.40;1.00
5459;DHT22;2752;49.992;8.422;2023-02-18T16:05:48;12.40;1.00
5459;DHT22;2752;49.992;8.422;2023-02-18T16:08:22;12.40;1.00
5459;DHT22;2752;49.992;8.422;2023-02-18T16:10:53;12.40;1.00
5459;DHT22;2752;49.992;8.422;2023-02-18T16:13:21;12.40;1.00
5459;DHT22;2752;49.992;8.422;2023-02-18T16:15:49;12.30;1.00
5459;DHT22;2752;49.992;8.422;2023-02-18T16:18:22;12.30;1.00
5459;DHT22;2752;49.992;8.422;2023-02-18T16:20:55;12.30;1.00
5459;DHT22;2752;49.992;8.422;2023-02-18T16:23:29;12.30;1.00
5459;DHT22;2752;49.992;8.422;2023-02-18T16:26:09;12.30;1.00
5459;DHT22;2752;49.992;8.422;2023-02-18T16:28:36;12.20;1.00
5459;DHT22;2752;49.992;8.422;2023-02-18T16:31:03;12.20;1.00
5459;DHT22;2752;49.992;8.422;2023-02-18T16:33:30;12.20;1.00
5459;DHT22;2752;49.992;8.422;2023-02-18T16:35:56;12.10;1.00
5459;DHT22;2752;49.992;8.422;2023-02-18T16:38:24;12.10;1.00
5459;DHT22;2752;49.992;8.422;2023-02-18T16:40:52;12.10;1.00
5459;DHT22;2752;49.992;8.422;2023-02-18T16:43:22;12.00;1.00
5459;DHT22;2752;49.992;8.422;2023-02-18T16:45:51;12.00;1.00
5459;DHT22;2752;49.992;8.422;2023-02-18T16:48:21;12.00;1.00
5459;DHT22;2752;49.992;8.422;2023-02-18T16:50:49;12.00;1.00
5459;DHT22;2752;49.992;8.422;2023-02-18T16:53:17;12.00;1.00